Terminal Aerodrome Forecast
Issued by NWS Charleston, WV

Current Version | Previous Version | Graphics & Text | Print | Product List | Glossary On
Versions: 1 2 3 4 5 6 7 8 9 10 11 12 13 14 15 16 17 18 19 20 21 22 23 24 25 26
000
FTUS41 KRLX 180308 AAA
TAFEKN
TAF AMD
KEKN 180308Z 1803/1824 32006KT P6SM OVC015
     FM181000 31005KT P6SM SCT020
     FM181500 23010KT P6SM SCT140
     FM181600 25012G18KT P6SM SKC
     FM182100 25009KT P6SM SKC=

USA.gov is the U.S. government's official web portal to all federal, state and local government web resources and services.